VIE weather

Public forecast

Using degrees Celsius for public forecast. Weather courtesy of forecast.io.

Current aviation weather report (METAR) for Vienna International Airport

Retrieved 2020/08/10 11:20 UTC (4 minutes ago):

LOWW 101120Z 35005KT 320V050 9999 FEW050 31/18 Q1016 NOSIG

Aviation forecast (TAF) for Vienna International Airport

Retrieved 2020/08/10 09:20 UTC (2 hours ago):

TAF LOWW 100815Z 1009/1115 VRB04KT CAVOK TX30/1011Z TN18/1103Z TEMPO 1012/1018 09008KT FEW060CB BECMG 1103/1106 FEW060CB TEMPO 1106/1115 SHRA